sensor_id;sensor_type;location;lat;lon;timestamp;P1;durP1;ratioP1;P2;durP2;ratioP2
49812;SDS011;35706;52.100;5.056;2023-03-24T00:00:58;3.25;;;0.63;;
49812;SDS011;35706;52.100;5.056;2023-03-24T00:02:00;3.60;;;0.70;;
49812;SDS011;35706;52.100;5.056;2023-03-24T00:03:01;7.57;;;0.60;;
49812;SDS011;35706;52.100;5.056;2023-03-24T00:04:01;4.65;;;0.60;;
49812;SDS011;35706;52.100;5.056;2023-03-24T00:05:04;3.92;;;0.50;;
49812;SDS011;35706;52.100;5.056;2023-03-24T00:06:05;3.72;;;0.70;;
49812;SDS011;35706;52.100;5.056;2023-03-24T00:07:10;1.17;;;0.50;;
49812;SDS011;35706;52.100;5.056;2023-03-24T00:08:15;2.53;;;0.55;;
49812;SDS011;35706;52.100;5.056;2023-03-24T00:09:16;4.20;;;0.60;;
49812;SDS011;35706;52.100;5.056;2023-03-24T00:10:17;5.85;;;0.70;;
49812;SDS011;35706;52.100;5.056;2023-03-24T00:11:19;5.47;;;0.70;;
49812;SDS011;35706;52.100;5.056;2023-03-24T00:12:20;4.35;;;0.70;;
49812;SDS011;35706;52.100;5.056;2023-03-24T00:13:20;3.28;;;0.52;;
49812;SDS011;35706;52.100;5.056;2023-03-24T00:14:21;3.20;;;0.60;;
49812;SDS011;35706;52.100;5.056;2023-03-24T00:15:22;2.92;;;0.60;;
49812;SDS011;35706;52.100;5.056;2023-03-24T00:16:23;2.90;;;0.98;;
49812;SDS011;35706;52.100;5.056;2023-03-24T00:17:23;1.70;;;0.68;;
49812;SDS011;35706;52.100;5.056;2023-03-24T00:18:24;2.08;;;0.60;;
49812;SDS011;35706;52.100;5.056;2023-03-24T00:19:29;2.03;;;0.60;;
49812;SDS011;35706;52.100;5.056;2023-03-24T00:20:29;3.25;;;0.60;;
49812;SDS011;35706;52.100;5.056;2023-03-24T00:21:31;3.15;;;0.60;;
49812;SDS011;35706;52.100;5.056;2023-03-24T00:22:32;3.40;;;0.60;;
49812;SDS011;35706;52.100;5.056;2023-03-24T00:23:33;3.03;;;0.60;;
49812;SDS011;35706;52.100;5.056;2023-03-24T00:24:34;6.75;;;0.80;;
49812;SDS011;35706;52.100;5.056;2023-03-24T00:25:34;3.47;;;0.70;;
49812;SDS011;35706;52.100;5.056;2023-03-24T00:26:35;2.47;;;0.60;;
49812;SDS011;35706;52.100;5.056;2023-03-24T00:27:37;5.50;;;0.60;;
49812;SDS011;35706;52.100;5.056;2023-03-24T00:28:37;2.17;;;0.60;;
49812;SDS011;35706;52.100;5.056;2023-03-24T00:29:38;3.88;;;0.60;;
49812;SDS011;35706;52.100;5.056;2023-03-24T00:30:40;4.53;;;0.80;;
49812;SDS011;35706;52.100;5.056;2023-03-24T00:31:41;3.70;;;0.60;;
49812;SDS011;35706;52.100;5.056;2023-03-24T00:32:42;7.07;;;0.70;;
49812;SDS011;35706;52.100;5.056;2023-03-24T00:33:43;3.17;;;0.60;;
49812;SDS011;35706;52.100;5.056;2023-03-24T00:34:47;2.13;;;0.60;;
49812;SDS011;35706;52.100;5.056;2023-03-24T00:35:48;4.18;;;0.60;;
49812;SDS011;35706;52.100;5.056;2023-03-24T00:36:49;4.40;;;0.60;;
49812;SDS011;35706;52.100;5.056;2023-03-24T00:37:50;3.05;;;0.68;;
49812;SDS011;35706;52.100;5.056;2023-03-24T00:38:51;1.88;;;0.50;;
49812;SDS011;35706;52.100;5.056;2023-03-24T00:39:52;3.25;;;0.63;;
49812;SDS011;35706;52.100;5.056;2023-03-24T00:40:53;1.63;;;0.52;;
49812;SDS011;35706;52.100;5.056;2023-03-24T00:41:53;1.80;;;0.55;;
49812;SDS011;35706;52.100;5.056;2023-03-24T00:42:57;3.05;;;0.60;;
49812;SDS011;35706;52.100;5.056;2023-03-24T00:43:58;3.70;;;0.60;;
49812;SDS011;35706;52.100;5.056;2023-03-24T00:45:02;2.90;;;0.68;;
49812;SDS011;35706;52.100;5.056;2023-03-24T00:46:05;1.80;;;0.60;;
49812;SDS011;35706;52.100;5.056;2023-03-24T00:47:07;2.47;;;0.68;;
49812;SDS011;35706;52.100;5.056;2023-03-24T00:48:09;3.13;;;0.50;;
49812;SDS011;35706;52.100;5.056;2023-03-24T00:49:10;2.72;;;0.70;;
49812;SDS011;35706;52.100;5.056;2023-03-24T00:50:13;1.50;;;0.60;;
49812;SDS011;35706;52.100;5.056;2023-03-24T00:51:15;3.90;;;0.60;;
49812;SDS011;35706;52.100;5.056;2023-03-24T00:52:18;3.40;;;0.68;;
49812;SDS011;35706;52.100;5.056;2023-03-24T00:53:20;4.72;;;0.60;;
49812;SDS011;35706;52.100;5.056;2023-03-24T00:54:22;3.00;;;0.50;;
49812;SDS011;35706;52.100;5.056;2023-03-24T00:55:26;2.60;;;0.60;;
49812;SDS011;35706;52.100;5.056;2023-03-24T00:56:28;4.03;;;1.10;;
49812;SDS011;35706;52.100;5.056;2023-03-24T00:57:30;2.00;;;0.50;;
49812;SDS011;35706;52.100;5.056;2023-03-24T00:58:33;2.58;;;0.50;;
49812;SDS011;35706;52.100;5.056;2023-03-24T00:59:34;1.63;;;0.60;;
49812;SDS011;35706;52.100;5.056;2023-03-24T01:00:41;3.67;;;0.60;;
49812;SDS011;35706;52.100;5.056;2023-03-24T01:01:41;4.28;;;0.60;;
49812;SDS011;35706;52.100;5.056;2023-03-24T01:02:42;4.00;;;0.60;;
49812;SDS011;35706;52.100;5.056;2023-03-24T01:03:45;4.28;;;0.60;;
49812;SDS011;35706;52.100;5.056;2023-03-24T01:04:59;3.42;;;0.70;;
49812;SDS011;35706;52.100;5.056;2023-03-24T01:06:01;6.03;;;0.70;;
49812;SDS011;35706;52.100;5.056;2023-03-24T01:07:02;5.07;;;0.70;;
49812;SDS011;35706;52.100;5.056;2023-03-24T01:08:03;3.33;;;0.70;;
49812;SDS011;35706;52.100;5.056;2023-03-24T01:09:05;1.88;;;0.65;;
49812;SDS011;35706;52.100;5.056;2023-03-24T01:10:06;2.10;;;0.70;;
49812;SDS011;35706;52.100;5.056;2023-03-24T01:11:12;1.60;;;0.60;;
49812;SDS011;35706;52.100;5.056;2023-03-24T01:12:12;3.30;;;0.60;;
49812;SDS011;35706;52.100;5.056;2023-03-24T01:13:12;2.42;;;0.70;;
49812;SDS011;35706;52.100;5.056;2023-03-24T01:14:13;2.53;;;0.70;;
49812;SDS011;35706;52.100;5.056;2023-03-24T01:15:14;3.70;;;0.70;;
49812;SDS011;35706;52.100;5.056;2023-03-24T01:16:17;4.20;;;0.70;;
49812;SDS011;35706;52.100;5.056;2023-03-24T01:17:18;4.15;;;0.60;;
49812;SDS011;35706;52.100;5.056;2023-03-24T01:18:21;3.10;;;0.70;;
49812;SDS011;35706;52.100;5.056;2023-03-24T01:19:24;2.95;;;0.70;;
49812;SDS011;35706;52.100;5.056;2023-03-24T01:20:25;4.18;;;0.75;;
49812;SDS011;35706;52.100;5.056;2023-03-24T01:21:25;1.80;;;0.65;;
49812;SDS011;35706;52.100;5.056;2023-03-24T01:22:27;2.33;;;0.70;;
49812;SDS011;35706;52.100;5.056;2023-03-24T01:23:28;2.22;;;0.60;;
49812;SDS011;35706;52.100;5.056;2023-03-24T01:24:30;2.85;;;0.88;;
49812;SDS011;35706;52.100;5.056;2023-03-24T01:25:30;1.63;;;0.60;;
49812;SDS011;35706;52.100;5.056;2023-03-24T01:26:31;4.90;;;0.70;;
49812;SDS011;35706;52.100;5.056;2023-03-24T01:27:31;3.10;;;0.70;;
49812;SDS011;35706;52.100;5.056;2023-03-24T01:28:32;2.22;;;0.70;;
49812;SDS011;35706;52.100;5.056;2023-03-24T01:29:37;2.03;;;0.60;;
49812;SDS011;35706;52.100;5.056;2023-03-24T01:30:37;4.20;;;0.80;;
49812;SDS011;35706;52.100;5.056;2023-03-24T01:31:38;2.75;;;0.60;;
49812;SDS011;35706;52.100;5.056;2023-03-24T01:32:38;4.05;;;0.57;;
49812;SDS011;35706;52.100;5.056;2023-03-24T01:33:39;2.85;;;0.60;;
49812;SDS011;35706;52.100;5.056;2023-03-24T01:34:39;2.50;;;0.60;;
49812;SDS011;35706;52.100;5.056;2023-03-24T01:35:39;2.20;;;0.60;;
49812;SDS011;35706;52.100;5.056;2023-03-24T01:36:40;1.27;;;0.60;;
49812;SDS011;35706;52.100;5.056;2023-03-24T01:37:40;1.90;;;0.70;;
49812;SDS011;35706;52.100;5.056;2023-03-24T01:38:41;2.05;;;0.60;;
49812;SDS011;35706;52.100;5.056;2023-03-24T01:39:41;2.95;;;0.60;;
49812;SDS011;35706;52.100;5.056;2023-03-24T01:40:42;2.90;;;0.82;;
49812;SDS011;35706;52.100;5.056;2023-03-24T01:41:45;4.68;;;0.70;;
49812;SDS011;35706;52.100;5.056;2023-03-24T01:42:45;4.65;;;0.68;;
49812;SDS011;35706;52.100;5.056;2023-03-24T01:43:46;3.63;;;0.60;;
49812;SDS011;35706;52.100;5.056;2023-03-24T01:44:47;2.42;;;0.60;;
49812;SDS011;35706;52.100;5.056;2023-03-24T01:47:02;2.67;;;0.70;;
49812;SDS011;35706;52.100;5.056;2023-03-24T01:49:15;2.20;;;0.60;;
49812;SDS011;35706;52.100;5.056;2023-03-24T01:50:16;2.22;;;0.80;;
49812;SDS011;35706;52.100;5.056;2023-03-24T01:52:42;3.53;;;0.68;;
49812;SDS011;35706;52.100;5.056;2023-03-24T01:55:09;2.25;;;0.70;;
49812;SDS011;35706;52.100;5.056;2023-03-24T01:56:17;2.10;;;0.60;;
49812;SDS011;35706;52.100;5.056;2023-03-24T01:57:25;3.42;;;0.70;;
49812;SDS011;35706;52.100;5.056;2023-03-24T01:58:32;3.55;;;0.60;;
49812;SDS011;35706;52.100;5.056;2023-03-24T01:59:37;1.92;;;0.70;;
49812;SDS011;35706;52.100;5.056;2023-03-24T02:00:40;2.65;;;0.70;;
49812;SDS011;35706;52.100;5.056;2023-03-24T02:01:41;1.92;;;0.63;;
49812;SDS011;35706;52.100;5.056;2023-03-24T02:02:43;3.28;;;0.80;;
49812;SDS011;35706;52.100;5.056;2023-03-24T02:03:48;5.05;;;0.80;;
49812;SDS011;35706;52.100;5.056;2023-03-24T02:04:50;3.30;;;0.70;;
49812;SDS011;35706;52.100;5.056;2023-03-24T02:05:53;1.95;;;0.70;;
49812;SDS011;35706;52.100;5.056;2023-03-24T02:06:56;1.73;;;0.70;;
49812;SDS011;35706;52.100;5.056;2023-03-24T02:09:29;2.55;;;0.60;;
49812;SDS011;35706;52.100;5.056;2023-03-24T02:10:29;5.03;;;0.80;;
49812;SDS011;35706;52.100;5.056;2023-03-24T02:11:33;4.03;;;0.80;;
49812;SDS011;35706;52.100;5.056;2023-03-24T02:12:35;1.70;;;0.70;;
49812;SDS011;35706;52.100;5.056;2023-03-24T02:13:36;3.15;;;0.70;;
49812;SDS011;35706;52.100;5.056;2023-03-24T02:14:36;2.05;;;0.70;;
49812;SDS011;35706;52.100;5.056;2023-03-24T02:15:50;2.75;;;0.70;;
49812;SDS011;35706;52.100;5.056;2023-03-24T02:21:57;1.42;;;0.50;;
49812;SDS011;35706;52.100;5.056;2023-03-24T02:24:45;1.75;;;0.40;;
49812;SDS011;35706;52.100;5.056;2023-03-24T02:28:40;3.22;;;0.20;;
49812;SDS011;35706;52.100;5.056;2023-03-24T02:33:07;1.35;;;0.20;;
49812;SDS011;35706;52.100;5.056;2023-03-24T02:37:00;1.05;;;0.20;;
49812;SDS011;35706;52.100;5.056;2023-03-24T02:45:36;1.80;;;0.10;;
49812;SDS011;35706;52.100;5.056;2023-03-24T02:46:44;2.53;;;0.20;;
49812;SDS011;35706;52.100;5.056;2023-03-24T02:49:09;1.58;;;0.20;;
49812;SDS011;35706;52.100;5.056;2023-03-24T02:50:58;3.13;;;0.20;;
49812;SDS011;35706;52.100;5.056;2023-03-24T02:52:02;2.95;;;0.10;;
49812;SDS011;35706;52.100;5.056;2023-03-24T02:53:06;1.30;;;0.22;;
49812;SDS011;35706;52.100;5.056;2023-03-24T02:54:14;4.45;;;0.25;;
49812;SDS011;35706;52.100;5.056;2023-03-24T02:55:22;4.00;;;0.20;;
49812;SDS011;35706;52.100;5.056;2023-03-24T02:56:35;6.70;;;0.25;;
49812;SDS011;35706;52.100;5.056;2023-03-24T02:59:04;2.35;;;0.20;;
49812;SDS011;35706;52.100;5.056;2023-03-24T03:01:34;4.60;;;0.20;;
49812;SDS011;35706;52.100;5.056;2023-03-24T03:02:42;5.40;;;0.20;;
49812;SDS011;35706;52.100;5.056;2023-03-24T03:03:48;4.72;;;0.30;;
49812;SDS011;35706;52.100;5.056;2023-03-24T03:04:55;6.22;;;0.30;;
49812;SDS011;35706;52.100;5.056;2023-03-24T03:06:05;5.75;;;0.30;;
49812;SDS011;35706;52.100;5.056;2023-03-24T03:07:21;4.82;;;0.38;;
49812;SDS011;35706;52.100;5.056;2023-03-24T03:08:25;3.75;;;0.30;;
49812;SDS011;35706;52.100;5.056;2023-03-24T03:09:29;2.13;;;0.30;;
49812;SDS011;35706;52.100;5.056;2023-03-24T03:10:30;3.58;;;0.30;;
49812;SDS011;35706;52.100;5.056;2023-03-24T03:11:40;5.55;;;0.30;;
49812;SDS011;35706;52.100;5.056;2023-03-24T03:12:43;3.20;;;0.20;;
49812;SDS011;35706;52.100;5.056;2023-03-24T03:13:55;4.13;;;0.30;;
49812;SDS011;35706;52.100;5.056;2023-03-24T03:15:07;5.35;;;0.30;;
49812;SDS011;35706;52.100;5.056;2023-03-24T03:16:21;4.72;;;0.30;;
49812;SDS011;35706;52.100;5.056;2023-03-24T03:17:28;2.78;;;0.30;;
49812;SDS011;35706;52.100;5.056;2023-03-24T03:18:53;6.95;;;0.32;;
49812;SDS011;35706;52.100;5.056;2023-03-24T03:19:59;3.53;;;0.25;;
49812;SDS011;35706;52.100;5.056;2023-03-24T03:21:09;5.60;;;0.20;;
49812;SDS011;35706;52.100;5.056;2023-03-24T03:22:15;4.43;;;0.30;;
49812;SDS011;35706;52.100;5.056;2023-03-24T03:23:20;3.28;;;0.30;;
49812;SDS011;35706;52.100;5.056;2023-03-24T03:24:37;6.53;;;0.50;;
49812;SDS011;35706;52.100;5.056;2023-03-24T03:25:43;7.97;;;0.30;;
49812;SDS011;35706;52.100;5.056;2023-03-24T03:26:49;7.00;;;0.30;;
49812;SDS011;35706;52.100;5.056;2023-03-24T03:27:50;11.35;;;0.57;;
49812;SDS011;35706;52.100;5.056;2023-03-24T03:28:56;4.95;;;0.30;;
49812;SDS011;35706;52.100;5.056;2023-03-24T03:30:01;6.90;;;0.30;;
49812;SDS011;35706;52.100;5.056;2023-03-24T03:31:07;8.25;;;0.50;;
49812;SDS011;35706;52.100;5.056;2023-03-24T03:32:14;7.53;;;0.30;;
49812;SDS011;35706;52.100;5.056;2023-03-24T03:33:24;4.20;;;0.30;;
49812;SDS011;35706;52.100;5.056;2023-03-24T03:34:36;5.25;;;0.30;;
49812;SDS011;35706;52.100;5.056;2023-03-24T03:35:53;9.15;;;1.15;;
49812;SDS011;35706;52.100;5.056;2023-03-24T03:37:03;5.68;;;0.30;;
49812;SDS011;35706;52.100;5.056;2023-03-24T03:38:17;3.90;;;0.20;;
49812;SDS011;35706;52.100;5.056;2023-03-24T03:39:27;5.80;;;0.20;;
49812;SDS011;35706;52.100;5.056;2023-03-24T03:40:31;9.73;;;0.63;;
49812;SDS011;35706;52.100;5.056;2023-03-24T03:41:37;7.53;;;0.30;;
49812;SDS011;35706;52.100;5.056;2023-03-24T03:42:39;2.90;;;0.22;;
49812;SDS011;35706;52.100;5.056;2023-03-24T03:43:39;6.72;;;0.35;;
49812;SDS011;35706;52.100;5.056;2023-03-24T03:44:40;9.57;;;0.30;;
49812;SDS011;35706;52.100;5.056;2023-03-24T03:45:40;5.80;;;0.40;;
49812;SDS011;35706;52.100;5.056;2023-03-24T03:46:41;6.25;;;0.40;;
49812;SDS011;35706;52.100;5.056;2023-03-24T03:47:41;12.10;;;0.60;;
49812;SDS011;35706;52.100;5.056;2023-03-24T03:48:42;5.85;;;0.30;;
49812;SDS011;35706;52.100;5.056;2023-03-24T03:49:43;4.72;;;0.30;;
49812;SDS011;35706;52.100;5.056;2023-03-24T03:50:45;7.40;;;0.30;;
49812;SDS011;35706;52.100;5.056;2023-03-24T03:51:45;3.03;;;0.30;;
49812;SDS011;35706;52.100;5.056;2023-03-24T03:52:46;8.63;;;0.40;;
49812;SDS011;35706;52.100;5.056;2023-03-24T03:53:51;7.07;;;0.40;;
49812;SDS011;35706;52.100;5.056;2023-03-24T03:54:54;6.13;;;0.40;;
49812;SDS011;35706;52.100;5.056;2023-03-24T03:55:55;7.28;;;0.40;;
49812;SDS011;35706;52.100;5.056;2023-03-24T03:56:56;7.80;;;0.40;;
49812;SDS011;35706;52.100;5.056;2023-03-24T03:57:58;14.30;;;0.50;;
49812;SDS011;35706;52.100;5.056;2023-03-24T03:58:58;4.97;;;0.40;;
49812;SDS011;35706;52.100;5.056;2023-03-24T04:00:03;6.90;;;0.60;;
49812;SDS011;35706;52.100;5.056;2023-03-24T04:01:11;7.10;;;0.40;;
49812;SDS011;35706;52.100;5.056;2023-03-24T04:02:21;5.90;;;0.47;;
49812;SDS011;35706;52.100;5.056;2023-03-24T04:03:31;5.05;;;0.60;;
49812;SDS011;35706;52.100;5.056;2023-03-24T04:06:08;6.22;;;0.40;;
49812;SDS011;35706;52.100;5.056;2023-03-24T04:07:35;7.25;;;0.65;;
49812;SDS011;35706;52.100;5.056;2023-03-24T04:08:48;8.02;;;1.25;;
49812;SDS011;35706;52.100;5.056;2023-03-24T04:10:13;7.90;;;0.75;;
49812;SDS011;35706;52.100;5.056;2023-03-24T04:11:50;5.13;;;0.40;;
49812;SDS011;35706;52.100;5.056;2023-03-24T04:14:45;7.93;;;0.70;;
49812;SDS011;35706;52.100;5.056;2023-03-24T04:15:59;8.50;;;0.50;;
49812;SDS011;35706;52.100;5.056;2023-03-24T04:17:35;13.70;;;0.50;;
49812;SDS011;35706;52.100;5.056;2023-03-24T04:18:51;7.97;;;0.52;;
49812;SDS011;35706;52.100;5.056;2023-03-24T04:20:23;8.73;;;0.32;;
49812;SDS011;35706;52.100;5.056;2023-03-24T04:24:42;6.88;;;0.40;;
49812;SDS011;35706;52.100;5.056;2023-03-24T04:30:15;6.00;;;0.40;;
49812;SDS011;35706;52.100;5.056;2023-03-24T04:31:25;6.28;;;0.38;;
49812;SDS011;35706;52.100;5.056;2023-03-24T04:34:00;7.22;;;0.85;;
49812;SDS011;35706;52.100;5.056;2023-03-24T04:35:08;7.85;;;0.55;;
49812;SDS011;35706;52.100;5.056;2023-03-24T04:36:13;11.70;;;0.70;;
49812;SDS011;35706;52.100;5.056;2023-03-24T04:37:24;13.75;;;0.77;;
49812;SDS011;35706;52.100;5.056;2023-03-24T04:38:31;10.02;;;0.50;;
49812;SDS011;35706;52.100;5.056;2023-03-24T04:39:35;14.50;;;0.70;;
49812;SDS011;35706;52.100;5.056;2023-03-24T04:40:39;11.15;;;0.50;;
49812;SDS011;35706;52.100;5.056;2023-03-24T04:41:41;13.48;;;0.63;;
49812;SDS011;35706;52.100;5.056;2023-03-24T04:42:53;11.60;;;0.55;;
49812;SDS011;35706;52.100;5.056;2023-03-24T04:43:55;11.15;;;0.52;;
49812;SDS011;35706;52.100;5.056;2023-03-24T04:44:57;16.15;;;0.55;;
49812;SDS011;35706;52.100;5.056;2023-03-24T04:45:59;16.48;;;0.50;;
49812;SDS011;35706;52.100;5.056;2023-03-24T04:47:00;10.40;;;0.52;;
49812;SDS011;35706;52.100;5.056;2023-03-24T04:48:03;14.20;;;0.68;;
49812;SDS011;35706;52.100;5.056;2023-03-24T04:49:08;16.08;;;0.90;;
49812;SDS011;35706;52.100;5.056;2023-03-24T04:50:08;12.50;;;0.70;;
49812;SDS011;35706;52.100;5.056;2023-03-24T04:51:10;11.23;;;0.60;;
49812;SDS011;35706;52.100;5.056;2023-03-24T04:52:11;18.80;;;0.60;;
49812;SDS011;35706;52.100;5.056;2023-03-24T04:53:12;13.27;;;0.50;;
49812;SDS011;35706;52.100;5.056;2023-03-24T04:54:12;10.95;;;0.70;;
49812;SDS011;35706;52.100;5.056;2023-03-24T04:55:27;16.35;;;0.60;;
49812;SDS011;35706;52.100;5.056;2023-03-24T04:57:46;18.83;;;0.60;;
49812;SDS011;35706;52.100;5.056;2023-03-24T04:58:46;19.70;;;0.50;;
49812;SDS011;35706;52.100;5.056;2023-03-24T04:59:47;16.70;;;0.70;;
49812;SDS011;35706;52.100;5.056;2023-03-24T05:00:47;20.52;;;0.90;;
49812;SDS011;35706;52.100;5.056;2023-03-24T05:01:48;17.95;;;0.80;;
49812;SDS011;35706;52.100;5.056;2023-03-24T05:02:49;22.85;;;0.60;;
49812;SDS011;35706;52.100;5.056;2023-03-24T05:03:53;17.67;;;0.52;;
49812;SDS011;35706;52.100;5.056;2023-03-24T05:04:54;22.85;;;1.23;;
49812;SDS011;35706;52.100;5.056;2023-03-24T05:05:54;13.70;;;0.68;;
49812;SDS011;35706;52.100;5.056;2023-03-24T05:06:54;16.80;;;0.77;;
49812;SDS011;35706;52.100;5.056;2023-03-24T05:07:55;22.40;;;0.70;;
49812;SDS011;35706;52.100;5.056;2023-03-24T05:08:56;20.42;;;0.80;;
49812;SDS011;35706;52.100;5.056;2023-03-24T05:09:58;15.35;;;1.25;;
49812;SDS011;35706;52.100;5.056;2023-03-24T05:10:58;14.68;;;0.50;;
49812;SDS011;35706;52.100;5.056;2023-03-24T05:11:58;20.17;;;0.60;;
49812;SDS011;35706;52.100;5.056;2023-03-24T05:12:59;17.67;;;0.60;;
49812;SDS011;35706;52.100;5.056;2023-03-24T05:13:59;13.43;;;0.50;;
49812;SDS011;35706;52.100;5.056;2023-03-24T05:14:59;18.85;;;0.52;;
49812;SDS011;35706;52.100;5.056;2023-03-24T05:16:00;19.90;;;0.70;;
49812;SDS011;35706;52.100;5.056;2023-03-24T05:17:00;22.55;;;0.50;;
49812;SDS011;35706;52.100;5.056;2023-03-24T05:18:01;15.10;;;0.70;;
49812;SDS011;35706;52.100;5.056;2023-03-24T05:19:02;27.05;;;0.90;;
49812;SDS011;35706;52.100;5.056;2023-03-24T05:20:03;21.13;;;0.90;;
49812;SDS011;35706;52.100;5.056;2023-03-24T05:21:10;23.08;;;1.30;;
49812;SDS011;35706;52.100;5.056;2023-03-24T05:22:11;20.23;;;0.70;;
49812;SDS011;35706;52.100;5.056;2023-03-24T05:23:11;27.52;;;0.90;;
49812;SDS011;35706;52.100;5.056;2023-03-24T05:24:11;16.13;;;0.82;;
49812;SDS011;35706;52.100;5.056;2023-03-24T05:25:12;29.15;;;0.70;;
49812;SDS011;35706;52.100;5.056;2023-03-24T05:26:12;25.17;;;1.08;;
49812;SDS011;35706;52.100;5.056;2023-03-24T05:27:13;20.02;;;0.70;;
49812;SDS011;35706;52.100;5.056;2023-03-24T05:28:13;27.48;;;0.75;;
49812;SDS011;35706;52.100;5.056;2023-03-24T05:29:13;21.63;;;1.13;;
49812;SDS011;35706;52.100;5.056;2023-03-24T05:30:14;23.40;;;1.00;;
49812;SDS011;35706;52.100;5.056;2023-03-24T05:31:15;19.70;;;0.60;;
49812;SDS011;35706;52.100;5.056;2023-03-24T05:32:15;25.20;;;1.73;;
49812;SDS011;35706;52.100;5.056;2023-03-24T05:33:16;26.98;;;1.00;;
49812;SDS011;35706;52.100;5.056;2023-03-24T05:34:16;25.30;;;0.73;;
49812;SDS011;35706;52.100;5.056;2023-03-24T05:35:17;30.05;;;0.73;;
49812;SDS011;35706;52.100;5.056;2023-03-24T05:36:17;15.10;;;0.70;;
49812;SDS011;35706;52.100;5.056;2023-03-24T05:37:17;29.00;;;0.77;;
49812;SDS011;35706;52.100;5.056;2023-03-24T05:38:18;22.17;;;0.70;;
49812;SDS011;35706;52.100;5.056;2023-03-24T05:39:18;24.52;;;0.68;;
49812;SDS011;35706;52.100;5.056;2023-03-24T05:40:19;18.70;;;0.80;;
49812;SDS011;35706;52.100;5.056;2023-03-24T05:41:19;26.98;;;1.05;;
49812;SDS011;35706;52.100;5.056;2023-03-24T05:42:19;25.35;;;0.70;;
49812;SDS011;35706;52.100;5.056;2023-03-24T05:43:20;24.23;;;0.95;;
49812;SDS011;35706;52.100;5.056;2023-03-24T05:44:20;21.77;;;1.52;;
49812;SDS011;35706;52.100;5.056;2023-03-24T05:45:20;25.17;;;0.60;;
49812;SDS011;35706;52.100;5.056;2023-03-24T05:46:21;22.95;;;1.15;;
49812;SDS011;35706;52.100;5.056;2023-03-24T05:47:21;24.08;;;0.80;;
49812;SDS011;35706;52.100;5.056;2023-03-24T05:48:21;19.17;;;0.80;;
49812;SDS011;35706;52.100;5.056;2023-03-24T05:49:22;16.20;;;0.95;;
49812;SDS011;35706;52.100;5.056;2023-03-24T05:50:22;19.25;;;0.82;;
49812;SDS011;35706;52.100;5.056;2023-03-24T05:51:23;24.52;;;0.70;;
49812;SDS011;35706;52.100;5.056;2023-03-24T05:52:23;23.15;;;0.98;;
49812;SDS011;35706;52.100;5.056;2023-03-24T05:53:24;20.52;;;1.10;;
49812;SDS011;35706;52.100;5.056;2023-03-24T05:54:24;25.33;;;0.70;;
49812;SDS011;35706;52.100;5.056;2023-03-24T05:55:25;20.13;;;0.70;;
49812;SDS011;35706;52.100;5.056;2023-03-24T05:56:26;21.60;;;0.90;;
49812;SDS011;35706;52.100;5.056;2023-03-24T05:57:27;23.08;;;0.70;;
49812;SDS011;35706;52.100;5.056;2023-03-24T05:58:29;13.30;;;0.68;;
49812;SDS011;35706;52.100;5.056;2023-03-24T05:59:29;21.27;;;0.60;;
49812;SDS011;35706;52.100;5.056;2023-03-24T06:00:30;18.52;;;0.93;;
49812;SDS011;35706;52.100;5.056;2023-03-24T06:01:30;14.98;;;0.60;;
49812;SDS011;35706;52.100;5.056;2023-03-24T06:02:31;25.25;;;0.70;;
49812;SDS011;35706;52.100;5.056;2023-03-24T06:03:31;25.08;;;0.90;;
49812;SDS011;35706;52.100;5.056;2023-03-24T06:04:33;15.85;;;0.60;;
49812;SDS011;35706;52.100;5.056;2023-03-24T06:05:33;20.83;;;0.70;;
49812;SDS011;35706;52.100;5.056;2023-03-24T06:06:34;20.75;;;0.80;;
49812;SDS011;35706;52.100;5.056;2023-03-24T06:07:37;20.98;;;0.80;;
49812;SDS011;35706;52.100;5.056;2023-03-24T06:08:41;28.15;;;0.82;;
49812;SDS011;35706;52.100;5.056;2023-03-24T06:09:43;32.65;;;1.33;;
49812;SDS011;35706;52.100;5.056;2023-03-24T06:10:49;23.27;;;0.70;;
49812;SDS011;35706;52.100;5.056;2023-03-24T06:11:52;17.17;;;0.90;;
49812;SDS011;35706;52.100;5.056;2023-03-24T06:12:53;24.48;;;0.82;;
49812;SDS011;35706;52.100;5.056;2023-03-24T06:13:54;16.98;;;0.50;;
49812;SDS011;35706;52.100;5.056;2023-03-24T06:14:59;22.08;;;1.55;;
49812;SDS011;35706;52.100;5.056;2023-03-24T06:16:02;17.90;;;0.90;;
49812;SDS011;35706;52.100;5.056;2023-03-24T06:17:03;21.48;;;0.60;;
49812;SDS011;35706;52.100;5.056;2023-03-24T06:18:03;20.55;;;1.00;;
49812;SDS011;35706;52.100;5.056;2023-03-24T06:19:04;20.80;;;1.00;;
49812;SDS011;35706;52.100;5.056;2023-03-24T06:20:05;10.90;;;0.60;;
49812;SDS011;35706;52.100;5.056;2023-03-24T06:21:13;22.73;;;0.80;;
49812;SDS011;35706;52.100;5.056;2023-03-24T06:22:17;21.15;;;1.13;;
49812;SDS011;35706;52.100;5.056;2023-03-24T06:23:19;15.20;;;0.55;;
49812;SDS011;35706;52.100;5.056;2023-03-24T06:24:19;19.02;;;0.60;;
49812;SDS011;35706;52.100;5.056;2023-03-24T06:25:20;17.42;;;0.68;;
49812;SDS011;35706;52.100;5.056;2023-03-24T06:26:20;17.58;;;0.90;;
49812;SDS011;35706;52.100;5.056;2023-03-24T06:27:21;19.30;;;1.08;;
49812;SDS011;35706;52.100;5.056;2023-03-24T06:28:25;13.23;;;0.90;;
49812;SDS011;35706;52.100;5.056;2023-03-24T06:29:29;21.70;;;0.70;;
49812;SDS011;35706;52.100;5.056;2023-03-24T06:30:30;17.15;;;0.90;;
49812;SDS011;35706;52.100;5.056;2023-03-24T06:31:30;12.23;;;0.52;;
49812;SDS011;35706;52.100;5.056;2023-03-24T06:32:31;17.33;;;0.80;;
49812;SDS011;35706;52.100;5.056;2023-03-24T06:33:31;18.55;;;0.60;;
49812;SDS011;35706;52.100;5.056;2023-03-24T06:34:33;21.17;;;0.60;;
49812;SDS011;35706;52.100;5.056;2023-03-24T06:35:34;18.67;;;0.60;;
49812;SDS011;35706;52.100;5.056;2023-03-24T06:36:34;16.50;;;0.60;;
49812;SDS011;35706;52.100;5.056;2023-03-24T06:37:35;20.50;;;0.70;;
49812;SDS011;35706;52.100;5.056;2023-03-24T06:38:35;17.48;;;0.60;;
49812;SDS011;35706;52.100;5.056;2023-03-24T06:39:35;15.63;;;0.90;;
49812;SDS011;35706;52.100;5.056;2023-03-24T06:40:36;13.60;;;0.60;;
49812;SDS011;35706;52.100;5.056;2023-03-24T06:41:36;22.08;;;1.10;;
49812;SDS011;35706;52.100;5.056;2023-03-24T06:42:36;18.73;;;0.70;;
49812;SDS011;35706;52.100;5.056;2023-03-24T06:43:37;12.85;;;0.70;;
49812;SDS011;35706;52.100;5.056;2023-03-24T06:44:37;17.58;;;0.70;;
49812;SDS011;35706;52.100;5.056;2023-03-24T06:45:37;16.35;;;0.50;;
49812;SDS011;35706;52.100;5.056;2023-03-24T06:46:39;11.85;;;0.68;;
49812;SDS011;35706;52.100;5.056;2023-03-24T06:47:39;12.00;;;0.70;;
49812;SDS011;35706;52.100;5.056;2023-03-24T06:48:40;13.02;;;0.50;;
49812;SDS011;35706;52.100;5.056;2023-03-24T06:49:40;14.88;;;0.90;;
49812;SDS011;35706;52.100;5.056;2023-03-24T06:50:41;18.27;;;1.02;;
49812;SDS011;35706;52.100;5.056;2023-03-24T06:51:41;14.05;;;0.70;;
49812;SDS011;35706;52.100;5.056;2023-03-24T06:52:41;11.48;;;0.65;;
49812;SDS011;35706;52.100;5.056;2023-03-24T06:53:42;14.40;;;0.88;;
49812;SDS011;35706;52.100;5.056;2023-03-24T06:54:44;16.08;;;0.95;;
49812;SDS011;35706;52.100;5.056;2023-03-24T06:55:44;20.17;;;0.60;;
49812;SDS011;35706;52.100;5.056;2023-03-24T06:56:46;22.10;;;1.05;;
49812;SDS011;35706;52.100;5.056;2023-03-24T06:57:46;10.45;;;0.60;;
49812;SDS011;35706;52.100;5.056;2023-03-24T06:58:47;20.60;;;0.60;;
49812;SDS011;35706;52.100;5.056;2023-03-24T06:59:48;25.55;;;1.15;;
49812;SDS011;35706;52.100;5.056;2023-03-24T07:00:48;9.95;;;0.68;;
49812;SDS011;35706;52.100;5.056;2023-03-24T07:01:50;16.63;;;0.93;;
49812;SDS011;35706;52.100;5.056;2023-03-24T07:02:51;16.52;;;0.57;;
49812;SDS011;35706;52.100;5.056;2023-03-24T07:03:51;12.07;;;0.68;;
49812;SDS011;35706;52.100;5.056;2023-03-24T07:04:52;12.73;;;0.70;;
49812;SDS011;35706;52.100;5.056;2023-03-24T07:05:54;17.77;;;0.70;;
49812;SDS011;35706;52.100;5.056;2023-03-24T07:06:54;16.33;;;0.65;;
49812;SDS011;35706;52.100;5.056;2023-03-24T07:07:55;18.10;;;0.82;;